Latest Coastal Weather Observations for Burnie Port

IDT60701

Issued at 11:41 am EST Sunday 30 August 2015 (issued every 10 minutes, with the page automatically refreshed every 10 minutes)

About coastal observations | Map of coastal stations | Coastal observations for TAS | Marine services | Other Formats
Station Details ID: 091344 Name: BURNIE NTC AWS Lat: -41.05 Lon: 145.91 Height: 0.0 m
Data from the previous 72 hours. | See also: Recent months for locations in Tasmania
Date/Time
EST
Temp

°C
Wind Pressure Rain
since 9am
mm
Weather Cloud Vis
km
Sea
Height
m
Swell
Dir
 
Speed
knots
Gust
knots
hPa Trend Height
m
Period
s
Dir
30/11:30am 8.4 NW 8 9 1023.6 - - - - - - - - -
30/11:00am 8.3 NNW 7 9 1024.0 - - - - - - - - -
30/10:30am 8.3 NNW 7 8 1024.2 - - - - - - - - -
30/10:00am 7.8 NW 6 7 1024.5 - - - - - - - - -
30/09:30am 7.9 W 3 4 1024.5 - - - - - - - - -
30/09:00am 7.0 SSW 3 5 1024.5 - - - - - - - - -
30/08:30am 6.2 SSW 6 7 1024.6 - - - - - - - - -
30/08:00am 5.5 SSW 6 7 1024.4 - - - - - - - - -
30/07:30am 4.5 SSW 6 7 1024.3 - - - - - - - - -
30/07:00am 4.4 SSW 6 8 1024.0 - - - - - - - - -
30/06:30am 4.7 SW 5 6 1023.8 - - - - - - - - -
30/06:00am 5.5 SSW 4 6 1023.3 - - - - - - - - -
30/05:30am 5.5 SSW 4 7 1023.0 - - - - - - - - -
30/05:00am 5.3 SSW 7 9 1022.7 - - - - - - - - -
30/04:30am 5.9 SSE 7 9 1022.5 - - - - - - - - -
30/04:00am 6.1 ENE 4 6 1022.3 - - - - - - - - -
30/03:30am 6.3 S 8 13 1022.3 - - - - - - - - -
30/03:00am 6.3 SSW 13 18 1022.3 - - - - - - - - -
30/02:30am 6.6 SSW 12 17 1022.7 - - - - - - - - -
30/02:00am 6.8 SSW 12 18 1023.2 - - - - - - - - -
30/01:30am 7.1 SSW 12 17 1023.4 - - - - - - - - -
30/01:00am 7.2 SSW 12 18 1023.6 - - - - - - - - -
30/12:30am 7.4 SW 11 15 1023.5 - - - - - - - - -
30/12:00am 7.8 SSW 13 17 1023.6 - - - - - - - - -
 
Date/Time
EST
Temp

°C
Wind Pressure Rain
since 9am
mm
Weather Cloud Vis
km
Sea
Height
m
Swell
Dir
 
Speed
knots
Gust
knots
hPa Trend Height
m
Period
s
Dir
29/11:30pm 8.0 SSW 12 16 1023.7 - - - - - - - - -
29/11:00pm 8.2 SSW 11 15 1023.9 - - - - - - - - -
29/10:30pm 8.3 SSW 14 19 1024.1 - - - - - - - - -
29/10:00pm 8.8 SSW 12 17 1024.1 - - - - - - - - -
29/09:30pm 9.1 SSW 15 20 1023.6 - - - - - - - - -
29/09:00pm 9.3 SSW 15 22 1023.5 - - - - - - - - -
29/08:30pm 9.6 SW 12 17 1023.1 - - - - - - - - -
29/08:00pm 9.8 SSW 12 18 1022.8 - - - - - - - - -
29/07:30pm 10.0 SW 9 14 1022.5 - - - - - - - - -
29/07:00pm 10.5 SW 8 13 1022.2 - - - - - - - - -
29/06:30pm 11.0 SW 12 18 1021.8 - - - - - - - - -
29/06:00pm 11.5 SW 12 17 1021.4 - - - - - - - - -
29/05:30pm 12.1 SW 12 18 1021.1 - - - - - - - - -
29/05:00pm 12.8 SW 12 17 1020.8 - - - - - - - - -
29/04:30pm 13.4 SW 12 19 1020.5 - - - - - - - - -
29/04:00pm 13.8 SSW 12 19 1020.3 - - - - - - - - -
29/03:30pm 13.9 SSW 10 16 1020.0 - - - - - - - - -
29/03:00pm 13.8 SSW 10 18 1020.0 - - - - - - - - -
29/02:30pm 13.7 SW 12 21 1019.8 - - - - - - - - -
29/02:00pm 13.5 SSW 12 19 1019.9 - - - - - - - - -
29/01:30pm 13.3 SW 14 20 1020.1 - - - - - - - - -
29/01:00pm 13.2 SW 14 22 1020.2 - - - - - - - - -
29/12:30pm 13.2 SW 12 23 1020.5 - - - - - - - - -
29/12:00pm 13.2 SSW 13 19 1020.8 - - - - - - - - -
29/11:30am 12.9 SW 12 19 1020.9 - - - - - - - - -
29/11:00am 12.5 SW 14 22 1020.9 - - - - - - - - -
29/10:30am 12.2 SW 12 20 1021.0 - - - - - - - - -
29/10:00am 11.3 SSW 15 21 1020.9 - - - - - - - - -
29/09:30am 11.1 SSW 16 23 1020.4 - - - - - - - - -
29/09:00am 10.8 SSW 17 25 1020.2 - - - - - - - - -
29/08:30am 10.3 SSW 13 20 1020.3 - - - - - - - - -
29/08:00am 10.1 SSW 15 23 1020.2 - - - - - - - - -
29/07:30am 9.8 SSW 17 24 1019.6 - - - - - - - - -
29/07:00am 9.4 SSW 12 19 1019.2 - - - - - - - - -
29/06:40am 9.3 SSW 16 26 1019.0 - - - - - - - - -
29/06:30am 9.3 SSW 19 26 1018.9 - - - - - - - - -
29/06:04am 9.3 SSW 15 25 1018.8 - - - - - - - - -
29/06:00am 9.1 SSW 14 22 1018.8 - - - - - - - - -
29/05:30am 8.9 SSW 8 16 1018.8 - - - - - - - - -
29/05:00am 8.7 SW 8 14 1018.8 - - - - - - - - -
29/04:30am 8.5 SW 8 16 1018.7 - - - - - - - - -
29/04:00am 8.3 WSW 11 17 1018.6 - - - - - - - - -
29/03:30am 7.0 WNW 7 14 1019.3 - - - - - - - - -
29/03:00am 6.6 W 8 12 1019.9 - - - - - - - - -
29/02:30am 6.1 WNW 8 13 1020.5 - - - - - - - - -
29/02:00am 5.7 W 8 13 1021.1 - - - - - - - - -
29/01:30am 5.7 WSW 9 14 1021.8 - - - - - - - - -
29/01:00am 5.8 WSW 10 16 1022.4 - - - - - - - - -
29/12:30am 5.6 WSW 10 15 1022.5 - - - - - - - - -
29/12:00am 5.9 SW 16 24 1023.3 - - - - - - - - -
 
Date/Time
EST
Temp

°C
Wind Pressure Rain
since 9am
mm
Weather Cloud Vis
km
Sea
Height
m
Swell
Dir
 
Speed
knots
Gust
knots
hPa Trend Height
m
Period
s
Dir
28/11:40pm 5.5 WSW 16 26 1023.0 - - - - - - - - -
28/11:30pm 5.2 WSW 16 23 1023.1 - - - - - - - - -
28/11:00pm 5.1 WSW 13 19 1024.5 - - - - - - - - -
28/10:30pm 5.4 WSW 10 14 1025.0 - - - - - - - - -
28/10:00pm 5.7 WSW 8 13 1025.7 - - - - - - - - -
28/09:30pm 6.0 W 6 11 1026.0 - - - - - - - - -
28/09:00pm 6.4 WSW 9 14 1026.0 - - - - - - - - -
28/08:30pm 6.8 SW 11 17 1026.0 - - - - - - - - -
28/08:00pm 7.1 SW 12 17 1025.6 - - - - - - - - -
28/07:30pm 7.6 SSW 16 20 1025.1 - - - - - - - - -
28/07:00pm 8.1 SSW 14 19 1024.7 - - - - - - - - -
28/06:30pm 8.6 SW 15 21 1024.3 - - - - - - - - -
28/06:00pm 9.3 SW 11 19 1024.0 - - - - - - - - -
28/05:30pm 10.3 SSW 12 16 1023.8 - - - - - - - - -
28/05:00pm 11.0 SSW 10 15 1023.6 - - - - - - - - -
28/04:30pm 10.8 NW 6 9 1023.4 - - - - - - - - -
28/04:00pm 11.0 NW 5 8 1023.4 - - - - - - - - -
28/03:30pm 11.8 SW 4 7 1023.4 - - - - - - - - -
28/03:00pm 11.5 SSE 9 19 1023.2 - - - - - - - - -
28/02:30pm 11.1 SE 11 13 1023.4 - - - - - - - - -
28/02:00pm 11.1 SSE 10 15 1023.5 - - - - - - - - -
28/01:30pm 11.0 SSE 12 18 1023.5 - - - - - - - - -
28/01:00pm 10.7 SE 14 17 1023.8 - - - - - - - - -
28/12:30pm 10.4 SSE 14 20 1024.1 - - - - - - - - -
28/12:00pm 10.4 SSW 7 12 1024.7 - - - - - - - - -
28/11:30am 9.6 W 4 9 1025.0 - - - - - - - - -
28/11:00am 9.6 NE 5 8 1024.9 - - - - - - - - -
28/10:30am 9.1 ENE 5 8 1025.0 - - - - - - - - -
28/10:00am 9.3 ENE 4 5 1024.8 - - - - - - - - -
28/09:30am 9.3 ENE 3 4 1024.7 - - - - - - - - -
28/09:00am 8.8 E 3 3 1024.5 - - - - - - - - -
28/08:30am 8.8 SE 3 6 1024.3 - - - - - - - - -
28/08:00am 8.2 ESE 7 9 1024.1 - - - - - - - - -
28/07:30am 7.9 SSW 11 15 1023.4 - - - - - - - - -
28/07:00am 7.9 SSE 5 11 1023.0 - - - - - - - - -
28/06:30am 7.8 S 6 10 1022.9 - - - - - - - - -
28/06:00am 7.8 SSW 9 11 1022.7 - - - - - - - - -
28/05:30am 8.1 SSW 9 11 1022.4 - - - - - - - - -
28/05:00am 7.6 S 11 13 1022.0 - - - - - - - - -
28/04:30am 7.8 S 9 11 1021.7 - - - - - - - - -
28/04:00am 8.1 S 8 12 1021.6 - - - - - - - - -
28/03:30am 8.0 SSW 9 12 1021.4 - - - - - - - - -
28/03:00am 8.6 SSW 12 17 1021.2 - - - - - - - - -
28/02:30am 8.6 SSW 9 13 1021.5 - - - - - - - - -
28/02:00am 9.2 SSW 9 13 1021.5 - - - - - - - - -
28/01:30am 9.2 SSW 9 12 1021.8 - - - - - - - - -
28/01:00am 9.2 SSW 8 11 1021.8 - - - - - - - - -
28/12:30am 9.4 SSW 9 12 1021.8 - - - - - - - - -
28/12:00am 9.7 SSW 9 13 1021.7 - - - - - - - - -
 
Date/Time
EST
Temp

°C
Wind Pressure Rain
since 9am
mm
Weather Cloud Vis
km
Sea
Height
m
Swell
Dir
 
Speed
knots
Gust
knots
hPa Trend Height
m
Period
s
Dir
27/11:30pm 10.0 S 10 15 1021.7 - - - - - - - - -
27/11:00pm 10.0 SSW 12 16 1021.6 - - - - - - - - -
27/10:30pm 10.0 SSW 13 16 1021.5 - - - - - - - - -
27/10:00pm 10.4 SSW 12 17 1021.5 - - - - - - - - -

Other Formats:

Comma delimited format used in spreadsheet applications
http://www.bom.gov.au/fwo/IDT60701/IDT60701.95963.axf

JavaScript Object Notation format (JSON) in row-major order
http://www.bom.gov.au/fwo/IDT60701/IDT60701.95963.json